sensor_id;sensor_type;location;lat;lon;timestamp;temperature;humidity
3300;DHT22;1662;49.310;8.134;2023-07-31T00:01:44;19.30;99.90
3300;DHT22;1662;49.310;8.134;2023-07-31T00:04:10;19.30;99.90
3300;DHT22;1662;49.310;8.134;2023-07-31T00:06:35;19.40;99.90
3300;DHT22;1662;49.310;8.134;2023-07-31T00:09:01;19.40;99.90
3300;DHT22;1662;49.310;8.134;2023-07-31T00:11:26;19.40;99.90
3300;DHT22;1662;49.310;8.134;2023-07-31T00:13:53;19.40;99.90
3300;DHT22;1662;49.310;8.134;2023-07-31T00:16:19;19.30;99.90
3300;DHT22;1662;49.310;8.134;2023-07-31T00:18:44;19.30;99.90
3300;DHT22;1662;49.310;8.134;2023-07-31T00:21:10;19.30;99.90
3300;DHT22;1662;49.310;8.134;2023-07-31T00:23:36;19.30;99.90
3300;DHT22;1662;49.310;8.134;2023-07-31T00:26:03;19.30;99.90
3300;DHT22;1662;49.310;8.134;2023-07-31T00:28:29;19.20;99.90
3300;DHT22;1662;49.310;8.134;2023-07-31T00:30:54;19.20;99.90
3300;DHT22;1662;49.310;8.134;2023-07-31T00:33:20;19.20;99.90
3300;DHT22;1662;49.310;8.134;2023-07-31T00:35:46;19.20;99.90
3300;DHT22;1662;49.310;8.134;2023-07-31T00:38:11;19.20;99.90
3300;DHT22;1662;49.310;8.134;2023-07-31T00:40:37;19.20;99.90
3300;DHT22;1662;49.310;8.134;2023-07-31T00:43:03;19.20;99.90
3300;DHT22;1662;49.310;8.134;2023-07-31T00:45:29;19.20;99.90
3300;DHT22;1662;49.310;8.134;2023-07-31T00:47:55;19.20;99.90
3300;DHT22;1662;49.310;8.134;2023-07-31T00:50:24;19.20;99.90
3300;DHT22;1662;49.310;8.134;2023-07-31T00:52:49;19.20;99.90
3300;DHT22;1662;49.310;8.134;2023-07-31T00:55:15;19.20;99.90
3300;DHT22;1662;49.310;8.134;2023-07-31T00:57:41;19.10;99.90
3300;DHT22;1662;49.310;8.134;2023-07-31T01:00:08;19.10;99.90
3300;DHT22;1662;49.310;8.134;2023-07-31T01:02:34;19.10;99.90
3300;DHT22;1662;49.310;8.134;2023-07-31T01:05:01;19.10;99.90
3300;DHT22;1662;49.310;8.134;2023-07-31T01:07:49;19.10;99.90
3300;DHT22;1662;49.310;8.134;2023-07-31T01:10:20;19.10;99.90
3300;DHT22;1662;49.310;8.134;2023-07-31T01:12:48;19.10;99.90
3300;DHT22;1662;49.310;8.134;2023-07-31T01:15:13;19.10;99.90
3300;DHT22;1662;49.310;8.134;2023-07-31T01:17:41;19.10;99.90
3300;DHT22;1662;49.310;8.134;2023-07-31T01:20:13;19.10;99.90
3300;DHT22;1662;49.310;8.134;2023-07-31T01:28:20;19.10;99.90
3300;DHT22;1662;49.310;8.134;2023-07-31T01:30:51;19.00;99.90
3300;DHT22;1662;49.310;8.134;2023-07-31T01:33:19;19.10;99.90
3300;DHT22;1662;49.310;8.134;2023-07-31T01:35:46;19.10;99.90
3300;DHT22;1662;49.310;8.134;2023-07-31T01:38:14;19.00;99.90
3300;DHT22;1662;49.310;8.134;2023-07-31T01:40:44;19.00;99.90
3300;DHT22;1662;49.310;8.134;2023-07-31T01:43:12;19.00;99.90
3300;DHT22;1662;49.310;8.134;2023-07-31T01:45:37;19.00;99.90
3300;DHT22;1662;49.310;8.134;2023-07-31T01:48:03;19.00;99.90
3300;DHT22;1662;49.310;8.134;2023-07-31T01:50:31;19.00;99.90
3300;DHT22;1662;49.310;8.134;2023-07-31T01:52:57;19.00;99.90
3300;DHT22;1662;49.310;8.134;2023-07-31T01:55:22;19.00;99.90
3300;DHT22;1662;49.310;8.134;2023-07-31T01:57:50;19.00;99.90
3300;DHT22;1662;49.310;8.134;2023-07-31T02:00:17;19.00;99.90
3300;DHT22;1662;49.310;8.134;2023-07-31T02:02:43;19.00;99.90
3300;DHT22;1662;49.310;8.134;2023-07-31T02:05:09;18.90;99.90
3300;DHT22;1662;49.310;8.134;2023-07-31T02:07:34;18.90;99.90
3300;DHT22;1662;49.310;8.134;2023-07-31T02:10:00;18.90;99.90
3300;DHT22;1662;49.310;8.134;2023-07-31T02:12:25;18.90;99.90
3300;DHT22;1662;49.310;8.134;2023-07-31T02:14:51;18.90;99.90
3300;DHT22;1662;49.310;8.134;2023-07-31T02:17:17;18.90;99.90
3300;DHT22;1662;49.310;8.134;2023-07-31T02:19:44;18.90;99.90
3300;DHT22;1662;49.310;8.134;2023-07-31T02:22:10;18.90;99.90
3300;DHT22;1662;49.310;8.134;2023-07-31T02:24:35;18.80;99.90
3300;DHT22;1662;49.310;8.134;2023-07-31T02:27:01;18.80;99.90
3300;DHT22;1662;49.310;8.134;2023-07-31T02:29:27;18.80;99.90
3300;DHT22;1662;49.310;8.134;2023-07-31T02:31:52;18.80;99.90
3300;DHT22;1662;49.310;8.134;2023-07-31T02:34:18;18.70;99.90
3300;DHT22;1662;49.310;8.134;2023-07-31T02:36:44;18.70;99.90
3300;DHT22;1662;49.310;8.134;2023-07-31T02:39:09;18.70;99.90
3300;DHT22;1662;49.310;8.134;2023-07-31T02:41:35;18.70;99.90
3300;DHT22;1662;49.310;8.134;2023-07-31T02:44:00;18.70;99.90
3300;DHT22;1662;49.310;8.134;2023-07-31T02:46:26;18.70;99.90
3300;DHT22;1662;49.310;8.134;2023-07-31T02:48:51;18.60;99.90
3300;DHT22;1662;49.310;8.134;2023-07-31T02:51:17;18.60;99.90
3300;DHT22;1662;49.310;8.134;2023-07-31T02:53:42;18.60;99.90
3300;DHT22;1662;49.310;8.134;2023-07-31T02:56:08;18.60;99.90
3300;DHT22;1662;49.310;8.134;2023-07-31T02:58:34;18.50;99.90
3300;DHT22;1662;49.310;8.134;2023-07-31T03:00:59;18.60;99.90
3300;DHT22;1662;49.310;8.134;2023-07-31T03:03:25;18.60;99.90
3300;DHT22;1662;49.310;8.134;2023-07-31T03:05:50;18.60;99.90
3300;DHT22;1662;49.310;8.134;2023-07-31T03:08:16;18.60;99.90
3300;DHT22;1662;49.310;8.134;2023-07-31T03:10:41;18.50;99.90
3300;DHT22;1662;49.310;8.134;2023-07-31T03:13:07;18.50;99.90
3300;DHT22;1662;49.310;8.134;2023-07-31T03:15:33;18.50;99.90
3300;DHT22;1662;49.310;8.134;2023-07-31T03:17:58;18.50;99.90
3300;DHT22;1662;49.310;8.134;2023-07-31T03:20:24;18.50;99.90
3300;DHT22;1662;49.310;8.134;2023-07-31T03:22:49;18.50;99.90
3300;DHT22;1662;49.310;8.134;2023-07-31T03:25:17;18.50;99.90
3300;DHT22;1662;49.310;8.134;2023-07-31T03:27:45;18.50;99.90
3300;DHT22;1662;49.310;8.134;2023-07-31T03:30:15;18.50;99.90
3300;DHT22;1662;49.310;8.134;2023-07-31T03:32:41;18.50;99.90
3300;DHT22;1662;49.310;8.134;2023-07-31T03:35:07;18.50;99.90
3300;DHT22;1662;49.310;8.134;2023-07-31T03:37:32;18.50;99.90
3300;DHT22;1662;49.310;8.134;2023-07-31T03:39:58;18.50;99.90
3300;DHT22;1662;49.310;8.134;2023-07-31T03:42:23;18.50;99.90
3300;DHT22;1662;49.310;8.134;2023-07-31T03:44:55;18.50;99.90
3300;DHT22;1662;49.310;8.134;2023-07-31T03:47:23;18.40;99.90
3300;DHT22;1662;49.310;8.134;2023-07-31T03:49:48;18.40;99.90
3300;DHT22;1662;49.310;8.134;2023-07-31T03:52:16;18.40;99.90
3300;DHT22;1662;49.310;8.134;2023-07-31T03:54:41;18.40;99.90
3300;DHT22;1662;49.310;8.134;2023-07-31T03:57:12;18.40;99.90
3300;DHT22;1662;49.310;8.134;2023-07-31T03:59:38;18.40;99.90
3300;DHT22;1662;49.310;8.134;2023-07-31T04:02:06;18.40;99.90
3300;DHT22;1662;49.310;8.134;2023-07-31T04:04:31;18.50;99.90
3300;DHT22;1662;49.310;8.134;2023-07-31T04:06:57;18.40;99.90
3300;DHT22;1662;49.310;8.134;2023-07-31T04:09:23;18.40;99.90
3300;DHT22;1662;49.310;8.134;2023-07-31T04:11:48;18.40;99.90
3300;DHT22;1662;49.310;8.134;2023-07-31T04:14:14;18.40;99.90
3300;DHT22;1662;49.310;8.134;2023-07-31T04:16:39;18.40;99.90
3300;DHT22;1662;49.310;8.134;2023-07-31T04:19:05;18.40;99.90
3300;DHT22;1662;49.310;8.134;2023-07-31T04:21:30;18.30;99.90
3300;DHT22;1662;49.310;8.134;2023-07-31T04:23:58;18.30;99.90
3300;DHT22;1662;49.310;8.134;2023-07-31T04:26:24;18.30;99.90
3300;DHT22;1662;49.310;8.134;2023-07-31T04:28:52;18.30;99.90
3300;DHT22;1662;49.310;8.134;2023-07-31T04:31:17;18.30;99.90
3300;DHT22;1662;49.310;8.134;2023-07-31T04:33:43;18.30;99.90
3300;DHT22;1662;49.310;8.134;2023-07-31T04:36:09;18.30;99.90
3300;DHT22;1662;49.310;8.134;2023-07-31T04:38:34;18.30;99.90
3300;DHT22;1662;49.310;8.134;2023-07-31T04:41:00;18.20;99.90
3300;DHT22;1662;49.310;8.134;2023-07-31T04:43:25;18.20;99.90
3300;DHT22;1662;49.310;8.134;2023-07-31T04:45:51;18.20;99.90
3300;DHT22;1662;49.310;8.134;2023-07-31T04:48:16;18.20;99.90
3300;DHT22;1662;49.310;8.134;2023-07-31T04:50:42;18.20;99.90
3300;DHT22;1662;49.310;8.134;2023-07-31T04:53:08;18.20;99.90
3300;DHT22;1662;49.310;8.134;2023-07-31T04:55:33;18.10;99.90
3300;DHT22;1662;49.310;8.134;2023-07-31T04:58:01;18.20;99.90
3300;DHT22;1662;49.310;8.134;2023-07-31T05:00:27;18.20;99.90
3300;DHT22;1662;49.310;8.134;2023-07-31T05:02:52;18.20;99.90
3300;DHT22;1662;49.310;8.134;2023-07-31T05:05:20;18.10;99.90
3300;DHT22;1662;49.310;8.134;2023-07-31T05:07:46;18.10;99.90
3300;DHT22;1662;49.310;8.134;2023-07-31T05:10:14;18.10;99.90
3300;DHT22;1662;49.310;8.134;2023-07-31T05:12:40;18.20;99.90
3300;DHT22;1662;49.310;8.134;2023-07-31T05:15:06;18.20;99.90
3300;DHT22;1662;49.310;8.134;2023-07-31T05:17:31;18.10;99.90
3300;DHT22;1662;49.310;8.134;2023-07-31T05:20:00;18.20;99.90
3300;DHT22;1662;49.310;8.134;2023-07-31T05:22:25;18.30;99.90
3300;DHT22;1662;49.310;8.134;2023-07-31T05:24:51;18.30;99.90
3300;DHT22;1662;49.310;8.134;2023-07-31T05:27:16;18.30;99.90
3300;DHT22;1662;49.310;8.134;2023-07-31T05:29:44;18.20;99.90
3300;DHT22;1662;49.310;8.134;2023-07-31T05:32:10;18.30;99.90
3300;DHT22;1662;49.310;8.134;2023-07-31T05:34:35;18.30;99.90
3300;DHT22;1662;49.310;8.134;2023-07-31T05:37:01;18.20;99.90
3300;DHT22;1662;49.310;8.134;2023-07-31T05:39:27;18.30;99.90
3300;DHT22;1662;49.310;8.134;2023-07-31T05:41:52;18.30;99.90
3300;DHT22;1662;49.310;8.134;2023-07-31T05:44:18;18.30;99.90
3300;DHT22;1662;49.310;8.134;2023-07-31T05:46:43;18.40;99.90
3300;DHT22;1662;49.310;8.134;2023-07-31T05:49:09;18.40;99.90
3300;DHT22;1662;49.310;8.134;2023-07-31T05:51:34;18.40;99.90
3300;DHT22;1662;49.310;8.134;2023-07-31T05:54:00;18.40;99.90
3300;DHT22;1662;49.310;8.134;2023-07-31T05:56:25;18.40;99.90
3300;DHT22;1662;49.310;8.134;2023-07-31T05:58:52;18.50;99.90
3300;DHT22;1662;49.310;8.134;2023-07-31T06:01:18;18.60;99.90
3300;DHT22;1662;49.310;8.134;2023-07-31T06:03:44;18.60;99.90
3300;DHT22;1662;49.310;8.134;2023-07-31T06:06:09;18.70;99.90
3300;DHT22;1662;49.310;8.134;2023-07-31T06:08:35;18.70;99.90
3300;DHT22;1662;49.310;8.134;2023-07-31T06:11:00;18.70;99.90
3300;DHT22;1662;49.310;8.134;2023-07-31T06:13:26;18.80;99.90
3300;DHT22;1662;49.310;8.134;2023-07-31T06:15:52;18.80;99.90
3300;DHT22;1662;49.310;8.134;2023-07-31T06:18:17;18.80;99.90
3300;DHT22;1662;49.310;8.134;2023-07-31T06:20:43;18.80;99.90
3300;DHT22;1662;49.310;8.134;2023-07-31T06:23:08;18.80;99.90
3300;DHT22;1662;49.310;8.134;2023-07-31T06:25:34;18.80;99.90
3300;DHT22;1662;49.310;8.134;2023-07-31T06:28:00;18.70;99.90
3300;DHT22;1662;49.310;8.134;2023-07-31T06:30:25;18.70;99.90
3300;DHT22;1662;49.310;8.134;2023-07-31T06:32:51;18.70;99.90
3300;DHT22;1662;49.310;8.134;2023-07-31T06:35:16;18.80;99.90
3300;DHT22;1662;49.310;8.134;2023-07-31T06:37:42;18.70;99.90
3300;DHT22;1662;49.310;8.134;2023-07-31T06:40:10;18.70;99.90
3300;DHT22;1662;49.310;8.134;2023-07-31T06:42:36;18.70;99.90
3300;DHT22;1662;49.310;8.134;2023-07-31T06:45:02;18.70;99.90
3300;DHT22;1662;49.310;8.134;2023-07-31T06:47:28;18.70;99.90
3300;DHT22;1662;49.310;8.134;2023-07-31T06:49:53;18.70;99.90
3300;DHT22;1662;49.310;8.134;2023-07-31T06:52:19;18.70;99.90
3300;DHT22;1662;49.310;8.134;2023-07-31T06:54:50;18.70;99.90
3300;DHT22;1662;49.310;8.134;2023-07-31T06:57:25;18.80;99.90
3300;DHT22;1662;49.310;8.134;2023-07-31T06:59:51;18.80;99.90
3300;DHT22;1662;49.310;8.134;2023-07-31T07:02:16;18.80;99.90
3300;DHT22;1662;49.310;8.134;2023-07-31T07:04:42;18.90;99.90
3300;DHT22;1662;49.310;8.134;2023-07-31T07:07:07;19.00;99.90
3300;DHT22;1662;49.310;8.134;2023-07-31T07:09:33;19.00;99.90
3300;DHT22;1662;49.310;8.134;2023-07-31T07:11:58;19.10;99.90
3300;DHT22;1662;49.310;8.134;2023-07-31T07:14:24;19.10;99.90
3300;DHT22;1662;49.310;8.134;2023-07-31T07:16:52;19.20;99.90
3300;DHT22;1662;49.310;8.134;2023-07-31T07:19:18;19.40;99.90
3300;DHT22;1662;49.310;8.134;2023-07-31T07:21:44;19.40;99.90
3300;DHT22;1662;49.310;8.134;2023-07-31T07:24:09;19.50;99.90
3300;DHT22;1662;49.310;8.134;2023-07-31T07:26:35;19.60;99.90
3300;DHT22;1662;49.310;8.134;2023-07-31T07:29:00;19.60;99.90
3300;DHT22;1662;49.310;8.134;2023-07-31T07:31:28;19.70;99.90
3300;DHT22;1662;49.310;8.134;2023-07-31T07:33:56;19.90;99.90
3300;DHT22;1662;49.310;8.134;2023-07-31T07:36:22;19.90;99.90
3300;DHT22;1662;49.310;8.134;2023-07-31T07:38:48;19.90;99.90
3300;DHT22;1662;49.310;8.134;2023-07-31T07:41:13;19.90;99.90
3300;DHT22;1662;49.310;8.134;2023-07-31T07:43:39;20.00;99.90
3300;DHT22;1662;49.310;8.134;2023-07-31T07:46:04;20.00;99.90
3300;DHT22;1662;49.310;8.134;2023-07-31T07:48:30;20.10;99.90
3300;DHT22;1662;49.310;8.134;2023-07-31T07:50:55;20.10;99.90
3300;DHT22;1662;49.310;8.134;2023-07-31T07:53:21;20.20;99.90
3300;DHT22;1662;49.310;8.134;2023-07-31T07:55:46;20.20;99.90
3300;DHT22;1662;49.310;8.134;2023-07-31T07:58:12;20.30;99.90
3300;DHT22;1662;49.310;8.134;2023-07-31T08:00:38;20.30;99.90
3300;DHT22;1662;49.310;8.134;2023-07-31T08:03:04;20.30;99.90
3300;DHT22;1662;49.310;8.134;2023-07-31T08:05:30;20.30;99.90
3300;DHT22;1662;49.310;8.134;2023-07-31T08:07:59;20.30;99.90
3300;DHT22;1662;49.310;8.134;2023-07-31T08:10:25;20.30;99.90
3300;DHT22;1662;49.310;8.134;2023-07-31T08:12:50;20.30;99.90
3300;DHT22;1662;49.310;8.134;2023-07-31T08:15:16;20.30;99.90
3300;DHT22;1662;49.310;8.134;2023-07-31T08:17:42;20.40;99.90
3300;DHT22;1662;49.310;8.134;2023-07-31T08:20:08;20.50;99.90
3300;DHT22;1662;49.310;8.134;2023-07-31T08:22:33;20.60;99.90
3300;DHT22;1662;49.310;8.134;2023-07-31T08:24:59;20.60;99.90
3300;DHT22;1662;49.310;8.134;2023-07-31T08:27:25;20.60;99.90
3300;DHT22;1662;49.310;8.134;2023-07-31T08:29:52;20.60;99.90
3300;DHT22;1662;49.310;8.134;2023-07-31T08:32:18;20.60;99.90
3300;DHT22;1662;49.310;8.134;2023-07-31T08:34:43;20.80;99.90
3300;DHT22;1662;49.310;8.134;2023-07-31T08:37:09;20.90;99.90
3300;DHT22;1662;49.310;8.134;2023-07-31T08:39:36;21.00;99.90
3300;DHT22;1662;49.310;8.134;2023-07-31T08:42:07;21.00;99.90
3300;DHT22;1662;49.310;8.134;2023-07-31T08:44:34;21.10;99.90
3300;DHT22;1662;49.310;8.134;2023-07-31T08:47:01;21.10;99.90
3300;DHT22;1662;49.310;8.134;2023-07-31T08:49:27;21.10;99.90
3300;DHT22;1662;49.310;8.134;2023-07-31T08:51:55;21.20;99.90
3300;DHT22;1662;49.310;8.134;2023-07-31T08:54:21;21.20;99.90
3300;DHT22;1662;49.310;8.134;2023-07-31T08:56:46;21.20;99.90
3300;DHT22;1662;49.310;8.134;2023-07-31T08:59:13;21.30;99.90
3300;DHT22;1662;49.310;8.134;2023-07-31T09:01:44;21.30;99.90
3300;DHT22;1662;49.310;8.134;2023-07-31T09:04:13;21.30;99.90
3300;DHT22;1662;49.310;8.134;2023-07-31T09:06:39;21.30;99.90
3300;DHT22;1662;49.310;8.134;2023-07-31T09:09:06;21.30;99.90
3300;DHT22;1662;49.310;8.134;2023-07-31T09:11:31;21.40;99.90
3300;DHT22;1662;49.310;8.134;2023-07-31T09:13:58;21.40;99.90
3300;DHT22;1662;49.310;8.134;2023-07-31T09:16:30;21.30;99.90
3300;DHT22;1662;49.310;8.134;2023-07-31T09:18:58;21.30;99.90
3300;DHT22;1662;49.310;8.134;2023-07-31T09:21:27;21.30;99.90
3300;DHT22;1662;49.310;8.134;2023-07-31T09:23:53;21.40;99.90
3300;DHT22;1662;49.310;8.134;2023-07-31T09:29:03;21.60;99.90
3300;DHT22;1662;49.310;8.134;2023-07-31T09:33:59;21.70;99.90
3300;DHT22;1662;49.310;8.134;2023-07-31T09:36:29;21.70;99.90
3300;DHT22;1662;49.310;8.134;2023-07-31T09:38:56;21.80;99.90
3300;DHT22;1662;49.310;8.134;2023-07-31T09:41:23;21.90;99.90
3300;DHT22;1662;49.310;8.134;2023-07-31T09:43:55;22.00;99.90
3300;DHT22;1662;49.310;8.134;2023-07-31T09:46:21;22.00;99.90
3300;DHT22;1662;49.310;8.134;2023-07-31T09:48:49;22.10;99.90
3300;DHT22;1662;49.310;8.134;2023-07-31T09:51:15;22.10;99.90
3300;DHT22;1662;49.310;8.134;2023-07-31T09:53:41;22.20;99.90
3300;DHT22;1662;49.310;8.134;2023-07-31T09:56:06;22.30;99.90
3300;DHT22;1662;49.310;8.134;2023-07-31T09:58:34;22.30;99.90
3300;DHT22;1662;49.310;8.134;2023-07-31T10:01:02;22.40;99.90
3300;DHT22;1662;49.310;8.134;2023-07-31T10:03:30;22.30;99.90
3300;DHT22;1662;49.310;8.134;2023-07-31T10:05:57;22.30;99.90
3300;DHT22;1662;49.310;8.134;2023-07-31T10:08:27;22.20;99.90
3300;DHT22;1662;49.310;8.134;2023-07-31T10:10:59;22.20;99.90
3300;DHT22;1662;49.310;8.134;2023-07-31T10:13:27;22.20;99.90
3300;DHT22;1662;49.310;8.134;2023-07-31T10:15:54;22.30;99.90
3300;DHT22;1662;49.310;8.134;2023-07-31T10:18:20;22.30;99.90
3300;DHT22;1662;49.310;8.134;2023-07-31T10:20:47;22.50;99.90
3300;DHT22;1662;49.310;8.134;2023-07-31T10:23:12;22.70;99.90
3300;DHT22;1662;49.310;8.134;2023-07-31T10:25:39;22.80;99.90
3300;DHT22;1662;49.310;8.134;2023-07-31T10:28:04;22.80;99.90
3300;DHT22;1662;49.310;8.134;2023-07-31T10:30:32;22.90;99.90
3300;DHT22;1662;49.310;8.134;2023-07-31T10:32:59;22.90;99.90
3300;DHT22;1662;49.310;8.134;2023-07-31T10:35:25;22.80;99.90
3300;DHT22;1662;49.310;8.134;2023-07-31T10:37:52;22.70;99.90
3300;DHT22;1662;49.310;8.134;2023-07-31T10:40:19;22.70;99.90
3300;DHT22;1662;49.310;8.134;2023-07-31T10:42:49;22.70;99.90
3300;DHT22;1662;49.310;8.134;2023-07-31T10:48:01;22.60;99.90
3300;DHT22;1662;49.310;8.134;2023-07-31T10:50:28;22.70;99.90
3300;DHT22;1662;49.310;8.134;2023-07-31T10:52:56;22.70;99.90
3300;DHT22;1662;49.310;8.134;2023-07-31T10:57:57;22.60;99.90
3300;DHT22;1662;49.310;8.134;2023-07-31T11:00:28;22.60;99.90
3300;DHT22;1662;49.310;8.134;2023-07-31T11:03:05;22.60;99.90
3300;DHT22;1662;49.310;8.134;2023-07-31T11:06:03;22.60;99.90
3300;DHT22;1662;49.310;8.134;2023-07-31T11:08:33;22.60;99.90
3300;DHT22;1662;49.310;8.134;2023-07-31T11:13:33;22.60;99.90
3300;DHT22;1662;49.310;8.134;2023-07-31T11:15:59;22.70;99.90
3300;DHT22;1662;49.310;8.134;2023-07-31T11:18:26;22.70;99.90
3300;DHT22;1662;49.310;8.134;2023-07-31T11:20:55;22.80;99.90
3300;DHT22;1662;49.310;8.134;2023-07-31T11:23:22;22.90;99.90
3300;DHT22;1662;49.310;8.134;2023-07-31T11:25:48;23.00;99.90
3300;DHT22;1662;49.310;8.134;2023-07-31T11:28:16;23.00;99.90
3300;DHT22;1662;49.310;8.134;2023-07-31T11:30:42;23.00;99.90
3300;DHT22;1662;49.310;8.134;2023-07-31T11:33:10;23.00;99.90
3300;DHT22;1662;49.310;8.134;2023-07-31T11:35:45;23.00;99.90
3300;DHT22;1662;49.310;8.134;2023-07-31T11:38:26;23.00;99.90
3300;DHT22;1662;49.310;8.134;2023-07-31T11:40:56;23.00;99.90
3300;DHT22;1662;49.310;8.134;2023-07-31T11:43:22;23.00;99.90
3300;DHT22;1662;49.310;8.134;2023-07-31T11:45:53;22.90;99.90
3300;DHT22;1662;49.310;8.134;2023-07-31T11:48:27;22.90;99.90
3300;DHT22;1662;49.310;8.134;2023-07-31T11:50:58;22.90;99.90
3300;DHT22;1662;49.310;8.134;2023-07-31T11:56:11;23.00;99.90
3300;DHT22;1662;49.310;8.134;2023-07-31T11:58:39;23.10;99.90
3300;DHT22;1662;49.310;8.134;2023-07-31T12:01:06;23.20;99.90
3300;DHT22;1662;49.310;8.134;2023-07-31T12:03:32;23.40;99.90
3300;DHT22;1662;49.310;8.134;2023-07-31T12:05:59;23.50;99.90
3300;DHT22;1662;49.310;8.134;2023-07-31T12:08:25;23.50;99.90
3300;DHT22;1662;49.310;8.134;2023-07-31T12:10:51;23.50;99.90
3300;DHT22;1662;49.310;8.134;2023-07-31T12:13:22;23.60;99.90
3300;DHT22;1662;49.310;8.134;2023-07-31T12:15:55;23.70;99.90
3300;DHT22;1662;49.310;8.134;2023-07-31T12:18:21;23.80;99.90
3300;DHT22;1662;49.310;8.134;2023-07-31T12:20:58;23.80;99.90
3300;DHT22;1662;49.310;8.134;2023-07-31T12:23:29;24.00;99.90
3300;DHT22;1662;49.310;8.134;2023-07-31T12:26:13;24.20;99.90
3300;DHT22;1662;49.310;8.134;2023-07-31T12:28:49;24.20;99.90
3300;DHT22;1662;49.310;8.134;2023-07-31T12:31:16;24.40;99.90
3300;DHT22;1662;49.310;8.134;2023-07-31T12:33:46;24.50;99.90
3300;DHT22;1662;49.310;8.134;2023-07-31T12:36:14;24.60;99.90
3300;DHT22;1662;49.310;8.134;2023-07-31T12:38:40;24.60;99.90
3300;DHT22;1662;49.310;8.134;2023-07-31T12:41:07;24.50;99.90
3300;DHT22;1662;49.310;8.134;2023-07-31T12:43:33;24.40;99.90
3300;DHT22;1662;49.310;8.134;2023-07-31T12:45:59;24.30;99.90
3300;DHT22;1662;49.310;8.134;2023-07-31T12:48:25;24.50;99.90
3300;DHT22;1662;49.310;8.134;2023-07-31T12:50:50;24.60;99.90
3300;DHT22;1662;49.310;8.134;2023-07-31T12:53:16;24.70;99.90
3300;DHT22;1662;49.310;8.134;2023-07-31T12:55:44;24.90;99.90
3300;DHT22;1662;49.310;8.134;2023-07-31T12:58:10;25.00;99.90
3300;DHT22;1662;49.310;8.134;2023-07-31T13:00:35;25.10;99.90
3300;DHT22;1662;49.310;8.134;2023-07-31T13:03:02;25.20;99.90
3300;DHT22;1662;49.310;8.134;2023-07-31T13:05:31;25.10;99.90
3300;DHT22;1662;49.310;8.134;2023-07-31T13:07:56;25.10;99.90
3300;DHT22;1662;49.310;8.134;2023-07-31T13:10:23;25.20;99.90
3300;DHT22;1662;49.310;8.134;2023-07-31T13:12:49;25.30;99.90
3300;DHT22;1662;49.310;8.134;2023-07-31T13:15:15;25.40;99.90
3300;DHT22;1662;49.310;8.134;2023-07-31T13:17:40;25.40;99.90
3300;DHT22;1662;49.310;8.134;2023-07-31T13:20:07;25.30;99.90
3300;DHT22;1662;49.310;8.134;2023-07-31T13:22:32;25.20;99.90
3300;DHT22;1662;49.310;8.134;2023-07-31T13:24:58;25.30;99.90
3300;DHT22;1662;49.310;8.134;2023-07-31T13:27:24;25.40;99.90
3300;DHT22;1662;49.310;8.134;2023-07-31T13:29:53;25.30;99.90
3300;DHT22;1662;49.310;8.134;2023-07-31T13:32:19;25.30;99.90
3300;DHT22;1662;49.310;8.134;2023-07-31T13:34:46;25.30;99.90
3300;DHT22;1662;49.310;8.134;2023-07-31T13:37:12;25.20;99.90
3300;DHT22;1662;49.310;8.134;2023-07-31T13:39:38;25.40;99.90
3300;DHT22;1662;49.310;8.134;2023-07-31T13:42:05;25.40;99.90
3300;DHT22;1662;49.310;8.134;2023-07-31T13:44:36;25.20;99.90
3300;DHT22;1662;49.310;8.134;2023-07-31T13:47:05;25.10;99.90
3300;DHT22;1662;49.310;8.134;2023-07-31T13:49:30;24.90;99.90
3300;DHT22;1662;49.310;8.134;2023-07-31T13:51:57;24.70;99.90
3300;DHT22;1662;49.310;8.134;2023-07-31T13:54:23;24.60;99.90
3300;DHT22;1662;49.310;8.134;2023-07-31T13:56:49;24.50;99.90
3300;DHT22;1662;49.310;8.134;2023-07-31T13:59:15;24.50;99.90
3300;DHT22;1662;49.310;8.134;2023-07-31T14:01:45;24.50;99.90
3300;DHT22;1662;49.310;8.134;2023-07-31T14:04:10;24.40;99.90
3300;DHT22;1662;49.310;8.134;2023-07-31T14:06:36;24.30;99.90
3300;DHT22;1662;49.310;8.134;2023-07-31T14:09:02;24.30;99.90
3300;DHT22;1662;49.310;8.134;2023-07-31T14:11:28;24.10;99.90
3300;DHT22;1662;49.310;8.134;2023-07-31T14:13:55;23.90;99.90
3300;DHT22;1662;49.310;8.134;2023-07-31T14:16:21;23.90;99.90
3300;DHT22;1662;49.310;8.134;2023-07-31T14:18:47;23.90;99.90
3300;DHT22;1662;49.310;8.134;2023-07-31T14:21:13;23.80;99.90
3300;DHT22;1662;49.310;8.134;2023-07-31T14:23:39;23.70;99.90
3300;DHT22;1662;49.310;8.134;2023-07-31T14:26:05;23.70;99.90
3300;DHT22;1662;49.310;8.134;2023-07-31T14:28:33;23.70;99.90
3300;DHT22;1662;49.310;8.134;2023-07-31T14:30:59;23.80;99.90
3300;DHT22;1662;49.310;8.134;2023-07-31T14:33:25;23.80;99.90
3300;DHT22;1662;49.310;8.134;2023-07-31T14:35:50;23.80;99.90
3300;DHT22;1662;49.310;8.134;2023-07-31T14:38:16;23.80;99.90
3300;DHT22;1662;49.310;8.134;2023-07-31T14:40:41;23.90;99.90
3300;DHT22;1662;49.310;8.134;2023-07-31T14:43:07;23.90;99.90
3300;DHT22;1662;49.310;8.134;2023-07-31T14:45:33;23.90;99.90
3300;DHT22;1662;49.310;8.134;2023-07-31T14:48:01;24.10;99.90
3300;DHT22;1662;49.310;8.134;2023-07-31T14:50:29;24.30;99.90
3300;DHT22;1662;49.310;8.134;2023-07-31T14:52:55;24.40;99.90
3300;DHT22;1662;49.310;8.134;2023-07-31T14:55:21;24.40;99.90
3300;DHT22;1662;49.310;8.134;2023-07-31T14:57:47;24.40;99.90
3300;DHT22;1662;49.310;8.134;2023-07-31T15:00:13;24.40;99.90
3300;DHT22;1662;49.310;8.134;2023-07-31T15:02:39;24.30;99.90
3300;DHT22;1662;49.310;8.134;2023-07-31T15:05:05;24.20;99.90
3300;DHT22;1662;49.310;8.134;2023-07-31T15:07:31;24.20;99.90
3300;DHT22;1662;49.310;8.134;2023-07-31T15:09:57;24.10;99.90
3300;DHT22;1662;49.310;8.134;2023-07-31T15:12:25;24.10;99.90
3300;DHT22;1662;49.310;8.134;2023-07-31T15:14:51;24.00;99.90
3300;DHT22;1662;49.310;8.134;2023-07-31T15:17:17;24.00;99.90
3300;DHT22;1662;49.310;8.134;2023-07-31T15:19:43;24.00;99.90
3300;DHT22;1662;49.310;8.134;2023-07-31T15:22:09;23.90;99.90
3300;DHT22;1662;49.310;8.134;2023-07-31T15:24:35;23.80;99.90
3300;DHT22;1662;49.310;8.134;2023-07-31T15:27:00;23.80;99.90
3300;DHT22;1662;49.310;8.134;2023-07-31T15:29:29;23.70;99.90
3300;DHT22;1662;49.310;8.134;2023-07-31T15:31:55;23.60;99.90
3300;DHT22;1662;49.310;8.134;2023-07-31T15:34:20;23.60;99.90
3300;DHT22;1662;49.310;8.134;2023-07-31T15:36:46;23.60;99.90
3300;DHT22;1662;49.310;8.134;2023-07-31T15:39:12;23.60;99.90
3300;DHT22;1662;49.310;8.134;2023-07-31T15:41:38;23.60;99.90
3300;DHT22;1662;49.310;8.134;2023-07-31T15:44:07;23.60;99.90
3300;DHT22;1662;49.310;8.134;2023-07-31T15:46:33;23.50;99.90
3300;DHT22;1662;49.310;8.134;2023-07-31T15:48:58;23.50;99.90
3300;DHT22;1662;49.310;8.134;2023-07-31T15:51:24;23.50;99.90
3300;DHT22;1662;49.310;8.134;2023-07-31T15:53:50;23.40;99.90
3300;DHT22;1662;49.310;8.134;2023-07-31T15:56:16;23.40;99.90
3300;DHT22;1662;49.310;8.134;2023-07-31T15:58:42;23.40;99.90
3300;DHT22;1662;49.310;8.134;2023-07-31T16:01:08;23.30;99.90
3300;DHT22;1662;49.310;8.134;2023-07-31T16:03:34;23.30;99.90
3300;DHT22;1662;49.310;8.134;2023-07-31T16:05:59;23.30;99.90
3300;DHT22;1662;49.310;8.134;2023-07-31T16:08:25;23.30;99.90
3300;DHT22;1662;49.310;8.134;2023-07-31T16:10:51;23.20;99.90
3300;DHT22;1662;49.310;8.134;2023-07-31T16:13:16;23.20;99.90
3300;DHT22;1662;49.310;8.134;2023-07-31T16:15:42;23.20;99.90
3300;DHT22;1662;49.310;8.134;2023-07-31T16:18:08;23.20;99.90
3300;DHT22;1662;49.310;8.134;2023-07-31T16:20:35;23.20;99.90